createdAt,value
2023-05-20T00:00:50.526Z,1.30
2023-05-20T00:03:20.519Z,1.40
2023-05-20T00:05:47.793Z,2.05
2023-05-20T00:08:15.586Z,1.98
2023-05-20T00:10:42.582Z,2.10
2023-05-20T00:13:09.946Z,1.95
2023-05-20T00:15:37.558Z,1.60
2023-05-20T00:18:05.772Z,2.10
2023-05-20T00:20:33.061Z,1.60
2023-05-20T00:23:00.492Z,2.00
2023-05-20T00:25:27.582Z,1.67
2023-05-20T00:27:54.849Z,2.22
2023-05-20T00:30:22.242Z,2.17
2023-05-20T00:32:49.629Z,1.92
2023-05-20T00:35:16.619Z,2.67
2023-05-20T00:37:44.036Z,1.70
2023-05-20T00:40:12.459Z,1.80
2023-05-20T00:42:41.580Z,1.63
2023-05-20T00:45:09.219Z,2.20
2023-05-20T00:47:37.266Z,1.70
2023-05-20T00:50:04.608Z,1.77
2023-05-20T00:52:32.810Z,1.83
2023-05-20T00:55:01.046Z,1.67
2023-05-20T00:57:28.645Z,1.65
2023-05-20T00:59:56.023Z,2.28
2023-05-20T01:02:24.070Z,2.40
2023-05-20T01:04:51.444Z,9.27
2023-05-20T01:07:19.936Z,5.47
2023-05-20T01:09:47.173Z,3.30
2023-05-20T01:12:23.699Z,2.05
2023-05-20T01:14:56.712Z,1.83
2023-05-20T01:17:27.238Z,1.40
2023-05-20T01:19:56.226Z,1.58
2023-05-20T01:22:27.433Z,1.70
2023-05-20T01:24:54.979Z,2.13
2023-05-20T01:27:23.638Z,1.73
2023-05-20T01:29:52.069Z,1.77
2023-05-20T01:32:28.541Z,1.60
2023-05-20T01:37:25.436Z,2.10
2023-05-20T01:39:54.177Z,1.70
2023-05-20T01:42:22.612Z,1.92
2023-05-20T01:44:49.687Z,1.75
2023-05-20T01:47:16.958Z,2.00
2023-05-20T01:49:46.204Z,1.88
2023-05-20T01:52:14.006Z,1.60
2023-05-20T01:54:41.679Z,1.45
2023-05-20T01:57:09.056Z,1.20
2023-05-20T01:59:36.134Z,1.90
2023-05-20T02:02:03.746Z,2.03
2023-05-20T02:04:30.824Z,1.88
2023-05-20T02:06:58.356Z,1.42
2023-05-20T02:09:25.561Z,1.58
2023-05-20T02:11:53.241Z,1.67
2023-05-20T02:14:20.778Z,1.88
2023-05-20T02:16:48.593Z,1.63
2023-05-20T02:19:19.927Z,2.10
2023-05-20T02:21:49.111Z,2.22
2023-05-20T02:24:16.959Z,1.70
2023-05-20T02:26:46.817Z,2.03
2023-05-20T02:29:13.826Z,1.45
2023-05-20T02:31:41.132Z,1.67
2023-05-20T02:34:08.191Z,1.80
2023-05-20T02:36:36.314Z,1.52
2023-05-20T02:39:03.904Z,1.83
2023-05-20T02:41:32.171Z,1.88
2023-05-20T02:43:59.224Z,2.40
2023-05-20T02:46:29.295Z,1.90
2023-05-20T02:48:56.312Z,1.90
2023-05-20T02:51:24.373Z,1.63
2023-05-20T02:53:51.541Z,2.05
2023-05-20T02:56:22.204Z,1.98
2023-05-20T02:58:49.555Z,1.80
2023-05-20T03:01:16.987Z,1.92
2023-05-20T03:03:44.735Z,1.65
2023-05-20T03:06:12.056Z,2.42
2023-05-20T03:08:39.808Z,2.13
2023-05-20T03:11:07.202Z,2.50
2023-05-20T03:13:35.059Z,1.77
2023-05-20T03:16:02.849Z,2.22
2023-05-20T03:18:30.008Z,1.92
2023-05-20T03:20:57.424Z,2.00
2023-05-20T03:23:24.504Z,2.88
2023-05-20T03:25:52.148Z,2.13
2023-05-20T03:28:19.194Z,1.60
2023-05-20T03:30:46.876Z,2.53
2023-05-20T03:33:15.953Z,2.08
2023-05-20T03:35:43.417Z,1.77
2023-05-20T03:38:10.529Z,1.63
2023-05-20T03:40:39.573Z,1.58
2023-05-20T03:43:06.734Z,1.95
2023-05-20T03:45:34.873Z,1.90
2023-05-20T03:48:07.167Z,1.80
2023-05-20T03:50:36.115Z,1.55
2023-05-20T03:53:03.384Z,2.60
2023-05-20T03:55:37.592Z,2.20
2023-05-20T03:58:05.280Z,4.20
2023-05-20T04:00:33.828Z,2.10
2023-05-20T04:03:01.410Z,2.20
2023-05-20T04:05:28.871Z,2.15
2023-05-20T04:07:57.592Z,2.15
2023-05-20T04:10:25.810Z,1.75
2023-05-20T04:12:53.974Z,2.00
2023-05-20T04:15:23.898Z,2.20
2023-05-20T04:17:58.985Z,2.47
2023-05-20T04:20:27.115Z,2.20
2023-05-20T04:22:57.467Z,2.17
2023-05-20T04:25:26.161Z,1.90
2023-05-20T04:27:57.628Z,1.95
2023-05-20T04:30:25.462Z,2.25
2023-05-20T04:32:52.950Z,2.10
2023-05-20T04:35:20.549Z,2.78
2023-05-20T04:37:51.838Z,2.20
2023-05-20T04:40:20.994Z,1.90
2023-05-20T04:42:48.137Z,1.80
2023-05-20T04:45:15.972Z,2.20
2023-05-20T04:47:46.037Z,2.28
2023-05-20T04:50:15.016Z,2.00
2023-05-20T04:52:43.698Z,1.80
2023-05-20T04:55:12.972Z,2.08
2023-05-20T04:57:42.199Z,1.90
2023-05-20T05:00:12.243Z,2.55
2023-05-20T05:02:40.592Z,1.50
2023-05-20T05:05:08.600Z,1.83
2023-05-20T05:07:36.150Z,1.75
2023-05-20T05:10:04.756Z,1.75
2023-05-20T05:12:32.889Z,2.17
2023-05-20T05:15:00.569Z,1.60
2023-05-20T05:17:28.948Z,2.38
2023-05-20T05:19:57.844Z,1.90
2023-05-20T05:22:26.499Z,2.00
2023-05-20T05:24:55.734Z,2.45
2023-05-20T05:27:24.139Z,2.10
2023-05-20T05:29:51.514Z,3.38
2023-05-20T05:32:19.934Z,2.33
2023-05-20T05:34:47.478Z,2.35
2023-05-20T05:37:14.916Z,2.22
2023-05-20T05:39:42.864Z,4.20
2023-05-20T05:42:09.992Z,3.30
2023-05-20T05:44:37.368Z,2.50
2023-05-20T05:47:07.130Z,2.00
2023-05-20T05:49:35.238Z,2.15
2023-05-20T05:52:03.436Z,2.03
2023-05-20T05:54:30.972Z,1.70
2023-05-20T05:56:58.057Z,2.40
2023-05-20T05:59:27.841Z,2.40
2023-05-20T06:01:55.080Z,1.80
2023-05-20T06:04:22.931Z,2.00
2023-05-20T06:06:53.201Z,2.00
2023-05-20T06:09:20.985Z,2.58
2023-05-20T06:11:48.166Z,2.45
2023-05-20T06:14:15.601Z,3.13
2023-05-20T06:16:42.752Z,2.00
2023-05-20T06:19:10.593Z,2.13
2023-05-20T06:21:38.591Z,2.00
2023-05-20T06:24:06.295Z,1.88
2023-05-20T06:26:35.796Z,1.98
2023-05-20T06:29:04.273Z,2.22
2023-05-20T06:31:31.411Z,2.15
2023-05-20T06:33:58.890Z,2.13
2023-05-20T06:36:27.596Z,1.90
2023-05-20T06:38:55.085Z,1.80
2023-05-20T06:41:22.427Z,1.40
2023-05-20T06:43:53.342Z,1.60
2023-05-20T06:46:35.729Z,1.85
2023-05-20T06:49:06.612Z,1.88
2023-05-20T06:51:34.042Z,1.63
2023-05-20T06:54:01.953Z,2.03
2023-05-20T06:56:29.186Z,2.20
2023-05-20T06:58:56.758Z,1.90
2023-05-20T07:01:23.864Z,1.60
2023-05-20T07:03:51.859Z,1.90
2023-05-20T07:06:19.387Z,1.77
2023-05-20T07:08:46.933Z,1.88
2023-05-20T07:11:14.413Z,1.60
2023-05-20T07:13:43.530Z,1.67
2023-05-20T07:16:10.678Z,1.95
2023-05-20T07:18:41.107Z,2.20
2023-05-20T07:21:08.344Z,1.80
2023-05-20T07:23:54.412Z,2.00
2023-05-20T07:26:21.743Z,1.83
2023-05-20T07:28:49.743Z,2.20
2023-05-20T07:31:17.075Z,1.98
2023-05-20T07:33:45.513Z,2.03
2023-05-20T07:36:13.508Z,2.30
2023-05-20T07:38:53.184Z,2.33
2023-05-20T07:41:28.973Z,1.80
2023-05-20T07:43:56.738Z,2.17
2023-05-20T07:46:24.101Z,2.03
2023-05-20T07:48:53.410Z,3.10
2023-05-20T07:51:20.687Z,1.80
2023-05-20T07:53:48.169Z,1.70
2023-05-20T07:56:16.792Z,2.10
2023-05-20T07:58:53.661Z,2.45
2023-05-20T08:01:22.047Z,2.05
2023-05-20T08:03:50.401Z,2.05
2023-05-20T08:06:21.117Z,1.80
2023-05-20T08:08:48.881Z,1.63
2023-05-20T08:11:21.874Z,1.92
2023-05-20T08:13:49.941Z,1.88
2023-05-20T08:16:20.750Z,1.70
2023-05-20T08:18:48.158Z,2.08
2023-05-20T08:21:15.880Z,1.92
2023-05-20T08:23:43.214Z,1.95
2023-05-20T08:26:10.314Z,2.15
2023-05-20T08:28:41.573Z,1.75
2023-05-20T08:31:09.032Z,2.15
2023-05-20T08:33:36.553Z,1.70
2023-05-20T08:36:03.929Z,1.58
2023-05-20T08:38:33.466Z,1.95
2023-05-20T08:41:02.467Z,2.10
2023-05-20T08:43:32.538Z,1.63
2023-05-20T08:46:06.489Z,1.77
2023-05-20T08:48:36.119Z,2.10
2023-05-20T08:51:04.664Z,1.80
2023-05-20T08:53:32.086Z,1.90
2023-05-20T08:56:03.861Z,1.80
2023-05-20T08:58:33.025Z,1.85
2023-05-20T09:01:00.757Z,1.98
2023-05-20T09:03:32.164Z,2.03
2023-05-20T09:06:07.607Z,2.03
2023-05-20T09:08:35.906Z,1.65
2023-05-20T09:11:03.233Z,1.50
2023-05-20T09:13:34.014Z,1.80
2023-05-20T09:16:02.392Z,1.73
2023-05-20T09:18:31.953Z,1.90
2023-05-20T09:21:04.784Z,1.73
2023-05-20T09:23:32.218Z,1.70
2023-05-20T09:26:02.527Z,1.85
2023-05-20T09:28:29.804Z,1.85
2023-05-20T09:31:02.142Z,1.92
2023-05-20T09:33:32.157Z,2.45
2023-05-20T09:36:08.149Z,2.05
2023-05-20T09:38:39.393Z,1.90
2023-05-20T09:41:14.081Z,2.20
2023-05-20T09:43:41.952Z,2.20
2023-05-20T09:46:11.080Z,2.38
2023-05-20T09:48:39.780Z,2.03
2023-05-20T09:51:08.324Z,2.20
2023-05-20T09:53:36.575Z,2.30
2023-05-20T09:56:04.131Z,2.22
2023-05-20T09:58:33.785Z,3.85
2023-05-20T10:01:06.459Z,2.20
2023-05-20T10:03:34.149Z,2.40
2023-05-20T10:06:10.193Z,2.20
2023-05-20T10:08:47.161Z,2.03
2023-05-20T10:11:43.955Z,2.20
2023-05-20T10:14:50.885Z,2.17
2023-05-20T10:17:28.623Z,2.08
2023-05-20T10:20:03.359Z,2.20
2023-05-20T10:22:33.252Z,4.20
2023-05-20T10:25:08.572Z,3.33
2023-05-20T10:27:47.588Z,2.83
2023-05-20T10:30:22.319Z,2.90
2023-05-20T10:32:58.231Z,2.60
2023-05-20T10:35:27.353Z,4.53
2023-05-20T10:38:06.400Z,2.90
2023-05-20T10:40:34.164Z,2.50
2023-05-20T10:43:10.966Z,2.40
2023-05-20T10:45:49.708Z,2.90
2023-05-20T10:48:28.983Z,3.20
2023-05-20T10:50:58.156Z,2.70
2023-05-20T10:53:34.137Z,2.70
2023-05-20T10:56:02.663Z,3.05
2023-05-20T10:58:37.945Z,3.45
2023-05-20T11:01:05.615Z,2.90
2023-05-20T11:03:34.917Z,3.63
2023-05-20T11:06:10.817Z,3.28
2023-05-20T11:08:38.250Z,3.95
2023-05-20T11:11:06.506Z,3.50
2023-05-20T11:13:34.023Z,4.50
2023-05-20T11:16:05.645Z,3.85
2023-05-20T11:18:32.872Z,3.47
2023-05-20T11:21:01.271Z,3.65
2023-05-20T11:23:29.358Z,3.50
2023-05-20T11:25:57.760Z,3.22
2023-05-20T11:28:24.933Z,4.28
2023-05-20T11:30:53.403Z,5.95
2023-05-20T11:33:20.704Z,5.38
2023-05-20T11:35:50.837Z,4.22
2023-05-20T11:38:19.443Z,3.70
2023-05-20T11:40:56.841Z,3.90
2023-05-20T11:43:24.697Z,3.53
2023-05-20T11:45:57.624Z,3.90
2023-05-20T11:48:25.227Z,3.75
2023-05-20T11:50:54.838Z,3.95
2023-05-20T11:53:23.866Z,3.63
2023-05-20T11:55:58.749Z,3.70
2023-05-20T12:01:02.385Z,3.47
2023-05-20T12:03:37.055Z,4.28
2023-05-20T12:06:04.689Z,4.35
2023-05-20T12:08:33.633Z,3.13
2023-05-20T12:11:01.178Z,3.33
2023-05-20T12:13:28.270Z,3.88
2023-05-20T12:15:57.039Z,3.17
2023-05-20T12:18:24.093Z,4.07
2023-05-20T12:20:51.622Z,3.08
2023-05-20T12:23:18.686Z,4.60
2023-05-20T12:25:47.362Z,3.90
2023-05-20T12:28:14.624Z,3.65
2023-05-20T12:30:42.035Z,3.90
2023-05-20T12:33:09.499Z,3.55
2023-05-20T12:35:38.739Z,4.60
2023-05-20T12:38:06.760Z,4.40
2023-05-20T12:40:34.715Z,3.33
2023-05-20T12:43:03.587Z,4.20
2023-05-20T12:45:31.263Z,3.92
2023-05-20T12:47:58.730Z,4.40
2023-05-20T12:50:26.146Z,4.32
2023-05-20T12:52:53.380Z,3.70
2023-05-20T12:55:20.918Z,4.80
2023-05-20T12:57:48.136Z,8.52
2023-05-20T13:00:16.081Z,4.38
2023-05-20T13:02:43.731Z,4.65
2023-05-20T13:05:11.564Z,7.78
2023-05-20T13:07:39.186Z,5.07
2023-05-20T13:10:08.024Z,8.40
2023-05-20T13:12:35.765Z,5.60
2023-05-20T13:15:04.277Z,9.25
2023-05-20T13:17:31.926Z,5.22
2023-05-20T13:19:59.513Z,5.72
2023-05-20T13:22:27.680Z,5.60
2023-05-20T13:24:54.962Z,6.40
2023-05-20T13:27:21.969Z,6.65
2023-05-20T13:29:49.476Z,6.75
2023-05-20T13:32:16.614Z,5.60
2023-05-20T13:34:44.422Z,4.60
2023-05-20T13:37:11.417Z,5.45
2023-05-20T13:39:41.373Z,4.82
2023-05-20T13:42:08.462Z,5.60
2023-05-20T13:44:39.023Z,5.65
2023-05-20T13:47:06.235Z,14.07
2023-05-20T13:49:33.586Z,14.80
2023-05-20T13:52:00.744Z,7.85
2023-05-20T13:54:28.250Z,4.20
2023-05-20T13:56:56.576Z,7.15
2023-05-20T13:59:23.914Z,11.65
2023-05-20T14:01:51.067Z,12.65
2023-05-20T14:04:18.662Z,10.30
2023-05-20T14:06:46.300Z,4.57
2023-05-20T14:09:13.607Z,4.60
2023-05-20T14:11:40.770Z,4.43
2023-05-20T14:14:08.078Z,5.47
2023-05-20T14:16:35.298Z,5.70
2023-05-20T14:19:02.968Z,5.60
2023-05-20T14:21:30.136Z,5.95
2023-05-20T14:23:58.850Z,4.63
2023-05-20T14:26:25.951Z,3.95
2023-05-20T14:28:53.312Z,5.07
2023-05-20T14:31:20.719Z,5.53
2023-05-20T14:33:48.378Z,11.27
2023-05-20T14:36:16.027Z,13.93
2023-05-20T14:38:43.583Z,9.98
2023-05-20T14:41:11.044Z,11.02
2023-05-20T14:43:38.486Z,6.88
2023-05-20T14:46:06.175Z,7.60
2023-05-20T14:48:33.567Z,16.65
2023-05-20T14:51:00.625Z,4.60
2023-05-20T14:53:28.023Z,5.80
2023-05-20T14:55:55.126Z,18.05
2023-05-20T14:58:22.692Z,13.75
2023-05-20T15:00:49.863Z,7.63
2023-05-20T15:03:17.320Z,11.98
2023-05-20T15:05:44.736Z,7.80
2023-05-20T15:08:12.255Z,5.32
2023-05-20T15:10:39.626Z,8.38
2023-05-20T15:13:07.085Z,7.25
2023-05-20T15:15:34.462Z,6.40
2023-05-20T15:18:02.020Z,6.80
2023-05-20T15:20:31.940Z,4.00
2023-05-20T15:23:00.943Z,8.43
2023-05-20T15:25:28.228Z,5.90
2023-05-20T15:27:55.547Z,4.65
2023-05-20T15:30:32.080Z,9.02
2023-05-20T15:32:59.570Z,3.47
2023-05-20T15:35:26.830Z,5.90
2023-05-20T15:37:54.616Z,10.00
2023-05-20T15:40:21.914Z,5.60
2023-05-20T15:42:51.524Z,6.68
2023-05-20T15:45:18.688Z,5.60
2023-05-20T15:47:46.104Z,4.43
2023-05-20T15:50:13.170Z,5.75
2023-05-20T15:52:40.655Z,4.25
2023-05-20T15:55:08.652Z,4.88
2023-05-20T15:57:35.986Z,4.95
2023-05-20T16:00:06.561Z,4.93
2023-05-20T16:02:36.413Z,3.95
2023-05-20T16:05:04.705Z,4.90
2023-05-20T16:07:32.263Z,5.15
2023-05-20T16:09:59.357Z,5.30
2023-05-20T16:12:26.869Z,4.05
2023-05-20T16:14:54.324Z,5.13
2023-05-20T16:17:21.849Z,3.90
2023-05-20T16:19:49.498Z,4.45
2023-05-20T16:22:18.920Z,4.47
2023-05-20T16:24:46.300Z,4.95
2023-05-20T16:27:13.715Z,5.35
2023-05-20T16:29:40.937Z,34.00
2023-05-20T16:32:08.390Z,5.90
2023-05-20T16:34:35.956Z,4.55
2023-05-20T16:37:03.644Z,4.70
2023-05-20T16:39:40.172Z,5.85
2023-05-20T16:42:09.287Z,6.35
2023-05-20T16:44:38.817Z,4.93
2023-05-20T16:47:06.942Z,4.35
2023-05-20T16:49:34.145Z,5.18
2023-05-20T16:52:04.106Z,9.60
2023-05-20T16:54:32.595Z,6.50
2023-05-20T16:56:59.991Z,8.40
2023-05-20T16:59:30.071Z,4.82
2023-05-20T17:01:57.782Z,5.18
2023-05-20T17:04:24.933Z,5.15
2023-05-20T17:06:52.385Z,5.13
2023-05-20T17:09:19.513Z,6.32
2023-05-20T17:11:46.946Z,6.47
2023-05-20T17:14:14.004Z,4.68
2023-05-20T17:16:41.611Z,4.72
2023-05-20T17:19:11.761Z,5.57
2023-05-20T17:21:40.109Z,5.55
2023-05-20T17:24:07.311Z,7.60
2023-05-20T17:26:34.751Z,7.97
2023-05-20T17:29:01.779Z,9.82
2023-05-20T17:31:29.472Z,8.07
2023-05-20T17:33:56.792Z,8.55
2023-05-20T17:36:24.351Z,8.32
2023-05-20T17:38:51.673Z,14.48
2023-05-20T17:41:19.155Z,11.18
2023-05-20T17:43:46.258Z,11.43
2023-05-20T17:46:13.898Z,9.05
2023-05-20T17:48:41.445Z,8.85
2023-05-20T17:51:08.850Z,13.77
2023-05-20T17:53:35.978Z,13.63
2023-05-20T17:56:03.614Z,7.80
2023-05-20T17:58:34.265Z,9.93
2023-05-20T18:01:02.495Z,10.30
2023-05-20T18:03:29.762Z,9.30
2023-05-20T18:05:57.291Z,8.23
2023-05-20T18:08:25.547Z,10.93
2023-05-20T18:10:53.033Z,17.83
2023-05-20T18:13:20.052Z,12.57
2023-05-20T18:15:48.154Z,33.45
2023-05-20T18:18:15.241Z,18.63
2023-05-20T18:20:42.727Z,14.40
2023-05-20T18:23:10.166Z,14.68
2023-05-20T18:25:37.559Z,12.45
2023-05-20T18:28:04.943Z,8.15
2023-05-20T18:30:32.370Z,7.20
2023-05-20T18:32:59.799Z,6.97
2023-05-20T18:35:27.202Z,6.97
2023-05-20T18:37:54.289Z,6.72
2023-05-20T18:40:21.831Z,6.25
2023-05-20T18:42:49.219Z,6.70
2023-05-20T18:45:16.695Z,9.60
2023-05-20T18:47:46.718Z,6.32
2023-05-20T18:50:14.031Z,6.40
2023-05-20T18:52:41.497Z,6.30
2023-05-20T18:55:09.458Z,7.47
2023-05-20T18:57:37.671Z,9.43
2023-05-20T19:00:08.429Z,7.88
2023-05-20T19:02:35.737Z,6.25
2023-05-20T19:05:03.242Z,6.95
2023-05-20T19:07:30.693Z,6.55
2023-05-20T19:10:02.116Z,6.40
2023-05-20T19:12:29.808Z,7.75
2023-05-20T19:14:57.590Z,6.47
2023-05-20T19:17:24.846Z,5.78
2023-05-20T19:19:52.452Z,7.18
2023-05-20T19:22:19.653Z,8.10
2023-05-20T19:24:46.947Z,10.80
2023-05-20T19:27:14.116Z,11.30
2023-05-20T19:29:41.477Z,9.25
2023-05-20T19:32:08.859Z,9.57
2023-05-20T19:34:36.782Z,9.10
2023-05-20T19:37:05.061Z,7.88
2023-05-20T19:39:32.554Z,8.50
2023-05-20T19:41:59.827Z,7.57
2023-05-20T19:44:27.274Z,8.55
2023-05-20T19:46:54.682Z,7.28
2023-05-20T19:49:22.090Z,6.72
2023-05-20T19:51:49.622Z,7.28
2023-05-20T19:54:16.960Z,7.90
2023-05-20T19:56:44.397Z,6.20
2023-05-20T19:59:11.846Z,6.50
2023-05-20T20:01:39.106Z,6.85
2023-05-20T20:04:06.503Z,6.80
2023-05-20T20:06:33.829Z,6.40
2023-05-20T20:09:01.285Z,6.97
2023-05-20T20:11:28.444Z,8.13
2023-05-20T20:13:55.934Z,7.72
2023-05-20T20:16:23.041Z,6.57
2023-05-20T20:18:50.920Z,7.47
2023-05-20T20:21:18.089Z,7.15
2023-05-20T20:23:45.552Z,7.22
2023-05-20T20:26:13.915Z,7.10
2023-05-20T20:28:41.335Z,7.13
2023-05-20T20:31:08.361Z,6.95
2023-05-20T20:33:36.151Z,7.10
2023-05-20T20:36:03.274Z,7.90
2023-05-20T20:38:34.609Z,8.25
2023-05-20T20:41:03.922Z,7.80
2023-05-20T20:43:31.352Z,7.97
2023-05-20T20:46:00.136Z,7.80
2023-05-20T20:48:27.952Z,7.35
2023-05-20T20:50:55.360Z,11.70
2023-05-20T20:53:22.900Z,9.65
2023-05-20T20:55:53.052Z,8.55
2023-05-20T20:58:20.627Z,8.40
2023-05-20T21:00:48.774Z,8.15
2023-05-20T21:03:16.491Z,8.73
2023-05-20T21:05:44.508Z,11.25
2023-05-20T21:08:13.360Z,8.90
2023-05-20T21:10:40.731Z,9.35
2023-05-20T21:13:08.150Z,8.63
2023-05-20T21:15:35.774Z,8.18
2023-05-20T21:18:04.149Z,8.02
2023-05-20T21:20:31.404Z,8.10
2023-05-20T21:22:58.893Z,9.80
2023-05-20T21:25:26.189Z,7.95
2023-05-20T21:27:53.579Z,7.43
2023-05-20T21:30:20.745Z,8.52
2023-05-20T21:32:48.070Z,7.53
2023-05-20T21:35:15.259Z,7.40
2023-05-20T21:37:42.598Z,7.47
2023-05-20T21:40:10.484Z,8.05
2023-05-20T21:42:37.955Z,7.22
2023-05-20T21:45:06.743Z,7.40
2023-05-20T21:47:34.151Z,7.32
2023-05-20T21:50:03.800Z,7.07
2023-05-20T21:52:31.241Z,6.88
2023-05-20T21:55:00.296Z,6.80
2023-05-20T21:57:27.610Z,6.53
2023-05-20T21:59:54.651Z,7.93
2023-05-20T22:02:23.146Z,8.50
2023-05-20T22:04:50.457Z,7.40
2023-05-20T22:07:18.579Z,6.45
2023-05-20T22:09:45.578Z,7.00
2023-05-20T22:12:15.423Z,7.07
2023-05-20T22:14:42.733Z,7.63
2023-05-20T22:17:10.557Z,7.32
2023-05-20T22:19:37.800Z,6.28
2023-05-20T22:22:05.297Z,6.40
2023-05-20T22:24:32.333Z,6.53
2023-05-20T22:27:00.117Z,6.53
2023-05-20T22:29:27.451Z,6.40
2023-05-20T22:31:54.831Z,6.85
2023-05-20T22:34:21.958Z,5.82
2023-05-20T22:36:49.484Z,6.63
2023-05-20T22:39:16.591Z,6.97
2023-05-20T22:41:44.154Z,6.60
2023-05-20T22:44:11.127Z,6.82
2023-05-20T22:46:38.474Z,7.03
2023-05-20T22:49:05.606Z,5.70
2023-05-20T22:51:34.611Z,6.05
2023-05-20T22:54:01.811Z,5.82
2023-05-20T22:56:29.645Z,6.60
2023-05-20T22:58:56.698Z,6.85
2023-05-20T23:01:24.228Z,7.38
2023-05-20T23:03:53.537Z,7.13
2023-05-20T23:06:22.472Z,6.50
2023-05-20T23:08:49.707Z,6.63
2023-05-20T23:11:17.015Z,6.97
2023-05-20T23:13:44.064Z,5.35
2023-05-20T23:16:11.416Z,5.80
2023-05-20T23:18:38.488Z,6.38
2023-05-20T23:21:05.934Z,5.75
2023-05-20T23:23:33.085Z,8.98
2023-05-20T23:26:01.629Z,5.75
2023-05-20T23:28:28.965Z,5.10
2023-05-20T23:30:56.666Z,5.05
2023-05-20T23:33:25.337Z,5.50
2023-05-20T23:35:53.369Z,5.53
2023-05-20T23:38:20.573Z,9.60
2023-05-20T23:40:49.268Z,6.28
2023-05-20T23:43:16.811Z,5.03
2023-05-20T23:45:44.189Z,5.60
2023-05-20T23:48:13.500Z,5.38
2023-05-20T23:50:41.005Z,6.70
2023-05-20T23:53:08.072Z,8.48
2023-05-20T23:55:35.803Z,8.50
2023-05-20T23:58:03.270Z,9.48
